»·PEaware :: N210AR KMYF-KSNA

N210AR :: KMYF-KSNA

FLIGHT INFORMATION

Flight Status: Arrived
Operator: Privately registered:
United States
More flights under this callsign
Pilot: Max S. (16657)
Aircraft: CESSNA 172 SKYHAWK
(C172)
More flights by this aircraft type
Origin: KMYF Montgomery
United States
Destination: KSNA John Wayne-Orange Co
United States
More flights between these airports :: More routes between these airports
Route:
File this flight plan on PilotEdge
Remarks:
Altitude:
(Current/Filed)
6,500ft
Speed:
(Current/Filed)
100kts
Departed: 28-Apr-20 10:26 AM
Arrived: 28-Apr-20 11:24 AM
Distance/Time
Traveled:
63nm/0:58
Distance/Time
To Go:
Arrived

Flight Plot

Page will automatically refresh every two minutes.


Map Options




Map Legend


Flown Route
Filed Route
Departure Airport
Arrival Airport
Navaid (VOR, NDB)
Fix

Horizontal Profiles

Position Reports

Time Latitude Longitude Heading Altitude Ground
Speed
28-Apr-20 09:48 32.813323 -117.140108 5 413ft 0kts
28-Apr-20 09:49 32.813323 -117.140108 5 413ft 0kts
28-Apr-20 09:50 32.813323 -117.140108 5 413ft 0kts
28-Apr-20 09:51 32.813323 -117.140108 5 413ft 0kts
28-Apr-20 09:52 32.813354 -117.140105 3 413ft 0kts
28-Apr-20 09:53 32.813354 -117.140105 3 413ft 0kts
28-Apr-20 09:54 32.813354 -117.140105 3 413ft 0kts
28-Apr-20 09:55 32.813354 -117.140105 3 413ft 0kts
28-Apr-20 09:56 32.813354 -117.140105 3 413ft 0kts
28-Apr-20 09:57 32.813354 -117.140105 3 413ft 0kts
28-Apr-20 09:58 32.813461 -117.140096 3 413ft 0kts
28-Apr-20 09:59 32.813461 -117.140096 3 413ft 0kts
28-Apr-20 10:03 32.813323 -117.140108 5 413ft 0kts
28-Apr-20 10:04 32.813323 -117.140108 5 413ft 0kts
28-Apr-20 10:05 32.813323 -117.140108 5 413ft 0kts
28-Apr-20 10:06 32.813323 -117.140108 5 413ft 0kts
28-Apr-20 10:07 32.813323 -117.140108 5 413ft 0kts
28-Apr-20 10:08 32.813323 -117.140108 5 413ft 0kts
28-Apr-20 10:09 32.813330 -117.140108 4 413ft 0kts
28-Apr-20 10:10 32.813330 -117.140108 4 413ft 0kts
28-Apr-20 10:12 32.813330 -117.140108 4 413ft 0kts
28-Apr-20 10:13 32.813330 -117.140108 4 413ft 0kts
28-Apr-20 10:14 32.813330 -117.140108 4 413ft 0kts
28-Apr-20 10:15 32.813330 -117.140108 4 413ft 0kts
28-Apr-20 10:16 32.813330 -117.140108 4 413ft 0kts
28-Apr-20 10:17 32.813396 -117.140081 36 413ft 4kts
28-Apr-20 10:18 32.812811 -117.136794 115 413ft 17kts
28-Apr-20 10:19 32.811346 -117.132320 62 413ft 3kts
28-Apr-20 10:20 32.811857 -117.131301 350 413ft 0kts
28-Apr-20 10:21 32.811857 -117.131301 350 413ft 0kts
28-Apr-20 10:22 32.811857 -117.131301 350 413ft 0kts
28-Apr-20 10:23 32.811857 -117.131301 350 413ft 0kts
28-Apr-20 10:24 32.812371 -117.131215 8 413ft 14kts
28-Apr-20 10:25 32.817127 -117.142762 286 686ft 59kts
28-Apr-20 10:26 32.820671 -117.164873 277 1417ft 70kts
28-Apr-20 10:27 32.834907 -117.181860 268 2043ft 85kts
28-Apr-20 10:28 32.829351 -117.205659 261 2790ft 77kts
28-Apr-20 10:29 32.831833 -117.231222 298 3373ft 82kts
28-Apr-20 10:30 32.848353 -117.248153 309 3994ft 75kts
28-Apr-20 10:31 32.862988 -117.264163 337 4486ft 80kts
28-Apr-20 10:32 32.882656 -117.275696 331 4585ft 100kts
28-Apr-20 10:33 32.903455 -117.288976 327 4500ft 106kts
28-Apr-20 10:34 32.921926 -117.301916 326 4503ft 108kts
28-Apr-20 10:35 32.939787 -117.314862 325 4502ft 109kts
28-Apr-20 10:36 32.958055 -117.328375 330 4504ft 115kts
28-Apr-20 10:37 32.969392 -117.336712 330 4503ft 117kts
28-Apr-20 10:38 32.976698 -117.342106 330 4503ft 117kts
28-Apr-20 10:39 32.991222 -117.352845 329 4502ft 117kts
28-Apr-20 10:40 33.009124 -117.366117 329 4503ft 117kts
28-Apr-20 10:41 33.027254 -117.379577 329 4503ft 117kts
28-Apr-20 10:42 33.041975 -117.390517 329 4504ft 117kts
28-Apr-20 10:43 33.060005 -117.403926 328 4504ft 117kts
28-Apr-20 10:44 33.076698 -117.416344 328 4503ft 115kts
28-Apr-20 10:45 33.092192 -117.427874 328 4505ft 113kts
28-Apr-20 10:46 33.110871 -117.442269 319 4506ft 126kts
28-Apr-20 10:47 33.130432 -117.463560 316 4504ft 127kts
28-Apr-20 10:48 33.150701 -117.485871 316 4506ft 123kts
28-Apr-20 10:49 33.168883 -117.505730 316 4340ft 132kts
28-Apr-20 10:50 33.185991 -117.524353 316 4034ft 136kts
28-Apr-20 10:51 33.201321 -117.540981 316 3755ft 134kts
28-Apr-20 10:52 33.214925 -117.555712 316 3506ft 133kts
28-Apr-20 10:53 33.227244 -117.569047 316 3280ft 133kts
28-Apr-20 10:54 33.238649 -117.581397 316 3072ft 133kts
28-Apr-20 10:55 33.249561 -117.593225 316 2873ft 134kts
28-Apr-20 10:56 33.259061 -117.603538 316 2700ft 134kts
28-Apr-20 10:57 33.268163 -117.613428 316 2535ft 134kts
28-Apr-20 10:58 33.276951 -117.622974 316 2517ft 125kts
28-Apr-20 10:59 33.285352 -117.632081 316 2521ft 120kts
28-Apr-20 11:00 33.293200 -117.640815 314 2522ft 118kts
28-Apr-20 11:01 33.303575 -117.650227 325 2522ft 117kts
28-Apr-20 11:02 33.316127 -117.658735 329 2522ft 117kts
28-Apr-20 11:03 33.328875 -117.666596 330 2522ft 117kts
28-Apr-20 11:04 33.341734 -117.674327 330 2522ft 117kts
28-Apr-20 11:05 33.352149 -117.684958 298 2522ft 113kts
28-Apr-20 11:06 33.362417 -117.695227 327 2522ft 117kts
28-Apr-20 11:07 33.374788 -117.702584 332 2521ft 118kts
28-Apr-20 11:08 33.387388 -117.709139 334 2521ft 118kts
28-Apr-20 11:09 33.400470 -117.715699 334 2520ft 119kts
28-Apr-20 11:10 33.414644 -117.722733 335 2519ft 119kts
28-Apr-20 11:11 33.434063 -117.732346 335 2518ft 120kts
28-Apr-20 11:12 33.473411 -117.751825 335 2517ft 121kts
28-Apr-20 11:13 33.513641 -117.771757 336 2515ft 122kts
28-Apr-20 11:14 33.550989 -117.790278 336 2515ft 123kts
28-Apr-20 11:15 33.586976 -117.808136 336 2514ft 124kts
28-Apr-20 11:17 33.612137 -117.821423 321 2411ft 84kts
28-Apr-20 11:18 33.629379 -117.834208 326 2005ft 85kts
28-Apr-20 11:19 33.644160 -117.850764 309 1553ft 83kts
28-Apr-20 11:20 33.660341 -117.860020 16 1147ft 83kts
28-Apr-20 11:21 33.675440 -117.851811 26 1099ft 64kts
28-Apr-20 11:22 33.689710 -117.847270 311 1123ft 81kts
28-Apr-20 11:23 33.686775 -117.859867 204 520ft 65kts
28-Apr-20 11:24 33.675283 -117.867236 210 49ft 9kts
28-Apr-20 11:25 33.673867 -117.867491 126 49ft 0kts
28-Apr-20 11:26 33.673146 -117.867241 222 49ft 8kts
28-Apr-20 11:27 33.671442 -117.868609 203 49ft 3kts
28-Apr-20 11:28 33.670915 -117.868136 37 49ft 0kts
28-Apr-20 11:29 33.670915 -117.868136 37 49ft 0kts

Navigation Log

Ident Type
Flight plan parsing failed, navigation log unavailable